Time;durP1;ratioP1;P1;durP2;ratioP2;P2;SDS_P1;SDS_P2;PMS_P1;PMS_P2;Temp;Humidity;BMP_temperature;BMP_pressure;BME280_temperature;BME280_humidity;BME280_pressure;Samples;Min_cycle;Max_cycle;Signal;HPM_P1;HPM_P2
2021/06/05 00:00:32;;;;;;;;;;;;;;;;;;3556048;27;20411;-41
2021/06/05 00:02:13;;;;;;;;;;;;;;;;;;3554494;27;19927;-41
2021/06/05 00:03:54;;;;;;;;;;;;;;;;;;3555913;27;20014;-41
2021/06/05 00:05:35;;;;;;;;;;;;;;;;;;3554451;27;20014;-41
2021/06/05 00:07:16;;;;;;;;;;;;;;;;;;3557049;27;19949;-41
2021/06/05 00:08:57;;;;;;;;;;;;;;;;;;3555277;27;20029;-41
2021/06/05 00:10:37;;;;;;;;;;;;;;;;;;3555919;27;19927;-41
2021/06/05 00:12:18;;;;;;;;;;;;;;;;;;3557202;27;19938;-41
2021/06/05 00:13:59;;;;;;;;;;;;;;;;;;3561595;27;19970;-41
2021/06/05 00:15:40;;;;;;;;;;;;;;;;;;3562768;27;20419;-41
2021/06/05 00:17:22;;;;;;;;;;;;;;;;;;3554615;27;19934;-41
2021/06/05 00:19:02;;;;;;;;;;;;;;;;;;3555270;27;19973;-41
2021/06/05 00:20:43;;;;;;;;;;;;;;;;;;3554585;27;19982;-41
2021/06/05 00:22:24;;;;;;;;;;;;;;;;;;3556557;27;19934;-41
2021/06/05 00:24:06;;;;;;;;;;;;;;;;;;3557375;27;20022;-41
2021/06/05 00:25:47;;;;;;;;;;;;;;;;;;3553945;27;19927;-41
2021/06/05 00:27:28;;;;;;;;;;;;;;;;;;3556813;27;19931;-42
2021/06/05 00:29:09;;;;;;;;;;;;;;;;;;3553939;27;20023;-41
2021/06/05 00:30:50;;;;;;;;;;;;;;;;;;3556858;27;19970;-41
2021/06/05 00:32:31;;;;;;;;;;;;;;;;;;3553684;27;19926;-41
2021/06/05 00:34:12;;;;;;;;;;;;;;;;;;3557056;27;19975;-41
2021/06/05 00:35:53;;;;;;;;;;;;;;;;;;3556076;27;20335;-41
2021/06/05 00:37:33;;;;;;;;;;;;;;;;;;3553586;27;19927;-41
2021/06/05 00:39:14;;;;;;;;;;;;;;;;;;3555625;27;19927;-41
2021/06/05 00:40:55;;;;;;;;;;;;;;;;;;3553999;27;20012;-41
2021/06/05 00:42:36;;;;;;;;;;;;;;;;;;3555193;27;19927;-41
2021/06/05 00:44:17;;;;;;;;;;;;;;;;;;3554325;27;19988;-41
2021/06/05 00:45:59;;;;;;;;;;;;;;;;;;3556427;27;20022;-41
2021/06/05 00:47:39;;;;;;;;;;;;;;;;;;3554530;27;19962;-41
2021/06/05 00:49:20;;;;;;;;;;;;;;;;;;3554640;27;19950;-41
2021/06/05 00:51:01;;;;;;;;;;;;;;;;;;3556513;27;19927;-41
2021/06/05 00:52:42;;;;;;;;;;;;;;;;;;3553615;27;19931;-41
2021/06/05 00:54:23;;;;;;;;;;;;;;;;;;3553148;27;19931;-41
2021/06/05 00:56:04;;;;;;;;;;;;;;;;;;3554038;27;19969;-41
2021/06/05 00:57:45;;;;;;;;;;;;;;;;;;3555123;27;20295;-41
2021/06/05 00:59:26;;;;;;;;;;;;;;;;;;3555257;27;20506;-41
2021/06/05 01:01:07;;;;;;;;;;;;;;;;;;3554714;27;20299;-41
2021/06/05 01:02:48;;;;;;;;;;;;;;;;;;3555379;27;19969;-41
2021/06/05 01:04:29;;;;;;;;;;;;;;;;;;3553656;27;19958;-41
2021/06/05 01:06:10;;;;;;;;;;;;;;;;;;3556199;27;19968;-41
2021/06/05 01:07:50;;;;;;;;;;;;;;;;;;3553784;27;20015;-41
2021/06/05 01:09:32;;;;;;;;;;;;;;;;;;3553902;27;19985;-41
2021/06/05 01:11:13;;;;;;;;;;;;;;;;;;3554437;27;19971;-41
2021/06/05 01:12:54;;;;;;;;;;;;;;;;;;3555330;27;19926;-41
2021/06/05 01:14:35;;;;;;;;;;;;;;;;;;3564312;27;19975;-41
2021/06/05 01:16:16;;;;;;;;;;;;;;;;;;3554829;27;19927;-41
2021/06/05 01:17:57;;;;;;;;;;;;;;;;;;3556089;27;20021;-41
2021/06/05 01:19:40;;;;;;;;;;;;;;;;;;3553661;27;19934;-41
2021/06/05 01:21:21;;;;;;;;;;;;;;;;;;3557265;27;20489;-42
2021/06/05 01:23:02;;;;;;;;;;;;;;;;;;3554188;27;19930;-41
2021/06/05 01:24:43;;;;;;;;;;;;;;;;;;3561190;27;19938;-42
2021/06/05 01:26:24;;;;;;;;;;;;;;;;;;3563723;27;20323;-41
2021/06/05 01:28:05;;;;;;;;;;;;;;;;;;3553362;27;19959;-41
2021/06/05 01:29:46;;;;;;;;;;;;;;;;;;3556009;27;20360;-41
2021/06/05 01:31:27;;;;;;;;;;;;;;;;;;3553405;27;19927;-42
2021/06/05 01:33:08;;;;;;;;;;;;;;;;;;3553608;27;19933;-41
2021/06/05 01:34:49;;;;;;;;;;;;;;;;;;3553144;27;20042;-41
2021/06/05 01:36:30;;;;;;;;;;;;;;;;;;3556294;27;19981;-41
2021/06/05 01:38:11;;;;;;;;;;;;;;;;;;3556227;27;20047;-42
2021/06/05 01:39:52;;;;;;;;;;;;;;;;;;3553036;27;19938;-41
2021/06/05 01:41:33;;;;;;;;;;;;;;;;;;3555851;27;19964;-42
2021/06/05 01:43:14;;;;;;;;;;;;;;;;;;3553436;27;19975;-42
2021/06/05 01:44:55;;;;;;;;;;;;;;;;;;3555755;27;19927;-41
2021/06/05 01:46:35;;;;;;;;;;;;;;;;;;3553400;27;19992;-41
2021/06/05 01:48:16;;;;;;;;;;;;;;;;;;3556062;27;19973;-42
2021/06/05 01:49:57;;;;;;;;;;;;;;;;;;3555502;27;20387;-47
2021/06/05 01:51:38;;;;;;;;;;;;;;;;;;3553613;27;19927;-46
2021/06/05 01:53:19;;;;;;;;;;;;;;;;;;3556063;27;20022;-44
2021/06/05 01:55:00;;;;;;;;;;;;;;;;;;3553361;27;20284;-45
2021/06/05 01:56:41;;;;;;;;;;;;;;;;;;3554184;27;19926;-46
2021/06/05 01:58:22;;;;;;;;;;;;;;;;;;3553317;27;20026;-45
2021/06/05 02:00:03;;;;;;;;;;;;;;;;;;3555718;27;19931;-44
2021/06/05 02:01:44;;;;;;;;;;;;;;;;;;3553070;27;20287;-45
2021/06/05 02:03:25;;;;;;;;;;;;;;;;;;3554145;27;19931;-45
2021/06/05 02:05:06;;;;;;;;;;;;;;;;;;3555606;27;19995;-45
2021/06/05 02:06:47;;;;;;;;;;;;;;;;;;3552964;27;20017;-47
2021/06/05 02:08:28;;;;;;;;;;;;;;;;;;3555797;27;20451;-41
2021/06/05 02:10:09;;;;;;;;;;;;;;;;;;3553423;27;20113;-42
2021/06/05 02:11:49;;;;;;;;;;;;;;;;;;3554430;27;19931;-42
2021/06/05 02:13:30;;;;;;;;;;;;;;;;;;3555917;27;19926;-42
2021/06/05 02:15:11;;;;;;;;;;;;;;;;;;3554907;27;19935;-42
2021/06/05 02:16:52;;;;;;;;;;;;;;;;;;3555867;27;20391;-42
2021/06/05 02:18:33;;;;;;;;;;;;;;;;;;3552668;27;19927;-42
2021/06/05 02:20:14;;;;;;;;;;;;;;;;;;3554336;27;20311;-42
2021/06/05 02:21:57;;;;;;;;;;;;;;;;;;3552558;27;19927;-42
2021/06/05 02:23:38;;;;;;;;;;;;;;;;;;3552809;27;19927;-41
2021/06/05 02:25:18;;;;;;;;;;;;;;;;;;3553230;27;20037;-41
2021/06/05 02:26:59;;;;;;;;;;;;;;;;;;3555140;27;19927;-42
2021/06/05 02:28:40;;;;;;;;;;;;;;;;;;3553406;27;20402;-42
2021/06/05 02:30:21;;;;;;;;;;;;;;;;;;3553335;27;19971;-42
2021/06/05 02:32:02;;;;;;;;;;;;;;;;;;3552737;27;19931;-42
2021/06/05 02:33:43;;;;;;;;;;;;;;;;;;3553014;27;19927;-42
2021/06/05 02:35:24;;;;;;;;;;;;;;;;;;3555453;27;20435;-42
2021/06/05 02:37:05;;;;;;;;;;;;;;;;;;3552965;27;20456;-41
2021/06/05 02:38:46;;;;;;;;;;;;;;;;;;3552663;27;20059;-42
2021/06/05 02:40:27;;;;;;;;;;;;;;;;;;3555288;27;20363;-41
2021/06/05 02:42:08;;;;;;;;;;;;;;;;;;3552937;27;19934;-42
2021/06/05 02:43:49;;;;;;;;;;;;;;;;;;3555648;27;20402;-47
2021/06/05 02:45:30;;;;;;;;;;;;;;;;;;3552681;27;19934;-46
2021/06/05 02:47:11;;;;;;;;;;;;;;;;;;3554113;27;19942;-45
2021/06/05 02:48:52;;;;;;;;;;;;;;;;;;3552735;27;20159;-46
2021/06/05 02:50:33;;;;;;;;;;;;;;;;;;3553973;27;19931;-46
2021/06/05 02:52:28;;;;;;;;;;;;;;;;;;3554119;27;19987;-46
2021/06/05 02:54:09;;;;;;;;;;;;;;;;;;3552930;27;20418;-42
2021/06/05 02:55:50;;;;;;;;;;;;;;;;;;3555286;27;19927;-42
2021/06/05 02:57:30;;;;;;;;;;;;;;;;;;3552616;27;20400;-42
2021/06/05 02:59:30;;;;;;;;;;;;;;;;;;3553143;27;19927;-41
2021/06/05 03:01:11;;;;;;;;;;;;;;;;;;3552859;27;19962;-42
2021/06/05 03:02:52;;;;;;;;;;;;;;;;;;3552393;27;19970;-42
2021/06/05 03:04:33;;;;;;;;;;;;;;;;;;3553635;27;19927;-41
2021/06/05 03:06:14;;;;;;;;;;;;;;;;;;3552587;27;20348;-42
2021/06/05 03:07:55;;;;;;;;;;;;;;;;;;3555041;27;19927;-42
2021/06/05 03:09:36;;;;;;;;;;;;;;;;;;3553293;27;20407;-42
2021/06/05 03:11:17;;;;;;;;;;;;;;;;;;3554191;27;19928;-42
2021/06/05 03:12:58;;;;;;;;;;;;;;;;;;3552961;27;19987;-41
2021/06/05 03:14:40;;;;;;;;;;;;;;;;;;3552309;27;19927;-41
2021/06/05 03:16:21;;;;;;;;;;;;;;;;;;3553715;27;19973;-42
2021/06/05 03:18:02;;;;;;;;;;;;;;;;;;3554530;27;19931;-42
2021/06/05 03:19:43;;;;;;;;;;;;;;;;;;3557846;27;20033;-42
2021/06/05 03:21:24;;;;;;;;;;;;;;;;;;3557049;27;19971;-42
2021/06/05 03:23:05;;;;;;;;;;;;;;;;;;3555559;27;20208;-42
2021/06/05 03:24:46;;;;;;;;;;;;;;;;;;3556328;27;20017;-42
2021/06/05 03:26:27;;;;;;;;;;;;;;;;;;3554887;27;19934;-43
2021/06/05 03:28:08;;;;;;;;;;;;;;;;;;3556070;27;20022;-42
2021/06/05 03:29:49;;;;;;;;;;;;;;;;;;3554916;27;19932;-42
2021/06/05 03:31:30;;;;;;;;;;;;;;;;;;3557336;27;20387;-42
2021/06/05 03:33:11;;;;;;;;;;;;;;;;;;3556424;27;20013;-42
2021/06/05 03:34:52;;;;;;;;;;;;;;;;;;3555991;27;19927;-46
2021/06/05 03:36:32;;;;;;;;;;;;;;;;;;3557354;27;20990;-45
2021/06/05 03:38:13;;;;;;;;;;;;;;;;;;3554850;27;20033;-45
2021/06/05 03:39:54;;;;;;;;;;;;;;;;;;3557378;27;20388;-46
2021/06/05 03:41:35;;;;;;;;;;;;;;;;;;3554594;27;19927;-47
2021/06/05 03:43:16;;;;;;;;;;;;;;;;;;3556054;27;20398;-42
2021/06/05 03:44:57;;;;;;;;;;;;;;;;;;3555507;27;19927;-42
2021/06/05 03:46:38;;;;;;;;;;;;;;;;;;3556181;27;19927;-42
2021/06/05 03:48:19;;;;;;;;;;;;;;;;;;3556600;27;19974;-42
2021/06/05 03:50:00;;;;;;;;;;;;;;;;;;3554510;27;19934;-42
2021/06/05 03:51:41;;;;;;;;;;;;;;;;;;3557100;27;19962;-42
2021/06/05 03:53:22;;;;;;;;;;;;;;;;;;3554905;27;19927;-42
2021/06/05 03:55:03;;;;;;;;;;;;;;;;;;3556016;27;19931;-42
2021/06/05 03:56:44;;;;;;;;;;;;;;;;;;3554677;27;19975;-42
2021/06/05 03:58:25;;;;;;;;;;;;;;;;;;3557073;27;20033;-42
2021/06/05 04:00:06;;;;;;;;;;;;;;;;;;3557792;27;20403;-42
2021/06/05 04:01:46;;;;;;;;;;;;;;;;;;3554106;27;20859;-42
2021/06/05 04:03:28;;;;;;;;;;;;;;;;;;3554614;27;19927;-42
2021/06/05 04:05:09;;;;;;;;;;;;;;;;;;3554794;27;19934;-42
2021/06/05 04:06:50;;;;;;;;;;;;;;;;;;3555431;27;20463;-42
2021/06/05 04:08:31;;;;;;;;;;;;;;;;;;3554758;27;19934;-46
2021/06/05 04:10:12;;;;;;;;;;;;;;;;;;3556971;27;20399;-45
2021/06/05 04:11:52;;;;;;;;;;;;;;;;;;3555258;27;19927;-46
2021/06/05 04:13:33;;;;;;;;;;;;;;;;;;3554555;27;19970;-46
2021/06/05 04:15:14;;;;;;;;;;;;;;;;;;3557132;27;19926;-45
2021/06/05 04:16:55;;;;;;;;;;;;;;;;;;3554149;27;20018;-47
2021/06/05 04:18:36;;;;;;;;;;;;;;;;;;3555728;27;19979;-47
2021/06/05 04:20:17;;;;;;;;;;;;;;;;;;3554428;27;19927;-46
2021/06/05 04:21:58;;;;;;;;;;;;;;;;;;3554243;27;19960;-47
2021/06/05 04:23:39;;;;;;;;;;;;;;;;;;3556211;27;20595;-46
2021/06/05 04:25:20;;;;;;;;;;;;;;;;;;3554936;27;19934;-46
2021/06/05 04:27:01;;;;;;;;;;;;;;;;;;3555426;27;20021;-45
2021/06/05 04:28:42;;;;;;;;;;;;;;;;;;3553983;27;19968;-46
2021/06/05 04:30:23;;;;;;;;;;;;;;;;;;3556788;27;20379;-46
2021/06/05 04:32:04;;;;;;;;;;;;;;;;;;3554212;27;19966;-45
2021/06/05 04:33:45;;;;;;;;;;;;;;;;;;3555453;27;19985;-46
2021/06/05 04:35:26;;;;;;;;;;;;;;;;;;3555207;27;19934;-46
2021/06/05 04:37:07;;;;;;;;;;;;;;;;;;3555451;27;19927;-47
2021/06/05 04:38:48;;;;;;;;;;;;;;;;;;3554558;27;19927;-47
2021/06/05 04:40:29;;;;;;;;;;;;;;;;;;3553958;27;20008;-46
2021/06/05 04:42:10;;;;;;;;;;;;;;;;;;3556540;27;19927;-45
2021/06/05 04:43:51;;;;;;;;;;;;;;;;;;3554077;27;20340;-46
2021/06/05 04:45:31;;;;;;;;;;;;;;;;;;3555570;27;19951;-46
2021/06/05 04:47:12;;;;;;;;;;;;;;;;;;3553685;27;20415;-47
2021/06/05 04:48:53;;;;;;;;;;;;;;;;;;3554299;27;19938;-45
2021/06/05 04:50:34;;;;;;;;;;;;;;;;;;3556671;27;19934;-46
2021/06/05 04:52:15;;;;;;;;;;;;;;;;;;3554035;27;19927;-42
2021/06/05 04:53:56;;;;;;;;;;;;;;;;;;3555192;27;20403;-42
2021/06/05 04:55:37;;;;;;;;;;;;;;;;;;3554175;27;19927;-42
2021/06/05 04:57:18;;;;;;;;;;;;;;;;;;3555373;27;19973;-46
2021/06/05 04:58:59;;;;;;;;;;;;;;;;;;3553756;27;19927;-45
2021/06/05 05:00:40;;;;;;;;;;;;;;;;;;3554214;27;20420;-45
2021/06/05 05:02:21;;;;;;;;;;;;;;;;;;3556556;27;20521;-47
2021/06/05 05:04:02;;;;;;;;;;;;;;;;;;3553717;27;20470;-48
2021/06/05 05:05:43;;;;;;;;;;;;;;;;;;3554281;27;19927;-42
2021/06/05 05:07:24;;;;;;;;;;;;;;;;;;3553640;27;20395;-42
2021/06/05 05:09:05;;;;;;;;;;;;;;;;;;3554965;27;19926;-42
2021/06/05 05:10:46;;;;;;;;;;;;;;;;;;3553845;27;20042;-42
2021/06/05 05:12:27;;;;;;;;;;;;;;;;;;3556128;27;19934;-43
2021/06/05 05:14:08;;;;;;;;;;;;;;;;;;3561867;27;20000;-42
2021/06/05 05:15:48;;;;;;;;;;;;;;;;;;3553716;27;20014;-42
2021/06/05 05:17:33;;;;;;;;;;;;;;;;;;3556258;27;19926;-42
2021/06/05 05:19:14;;;;;;;;;;;;;;;;;;3554073;27;20420;-42
2021/06/05 05:20:54;;;;;;;;;;;;;;;;;;3554660;27;19927;-42
2021/06/05 05:22:35;;;;;;;;;;;;;;;;;;3553692;27;19952;-42
2021/06/05 05:24:16;;;;;;;;;;;;;;;;;;3556264;27;19966;-43
2021/06/05 05:25:57;;;;;;;;;;;;;;;;;;3555469;27;20018;-42
2021/06/05 05:27:38;;;;;;;;;;;;;;;;;;3552909;27;19926;-42
2021/06/05 05:29:19;;;;;;;;;;;;;;;;;;3555134;27;19969;-42
2021/06/05 05:31:00;;;;;;;;;;;;;;;;;;3553199;27;20311;-42
2021/06/05 05:32:41;;;;;;;;;;;;;;;;;;3554552;27;19926;-42
2021/06/05 05:34:22;;;;;;;;;;;;;;;;;;3553751;27;19962;-42
2021/06/05 05:36:03;;;;;;;;;;;;;;;;;;3554869;27;20405;-43
2021/06/05 05:37:43;;;;;;;;;;;;;;;;;;3554505;27;19934;-43
2021/06/05 05:39:24;;;;;;;;;;;;;;;;;;3554592;27;19927;-42
2021/06/05 05:41:05;;;;;;;;;;;;;;;;;;3556003;27;19933;-43
2021/06/05 05:42:46;;;;;;;;;;;;;;;;;;3553250;27;20010;-43
2021/06/05 05:44:27;;;;;;;;;;;;;;;;;;3555849;27;19930;-43
2021/06/05 05:46:08;;;;;;;;;;;;;;;;;;3553720;27;19927;-44
2021/06/05 05:47:49;;;;;;;;;;;;;;;;;;3554967;27;20022;-43
2021/06/05 05:49:30;;;;;;;;;;;;;;;;;;3553689;27;19927;-43
2021/06/05 05:51:11;;;;;;;;;;;;;;;;;;3554402;27;20030;-43
2021/06/05 05:52:52;;;;;;;;;;;;;;;;;;3556374;27;19933;-43
2021/06/05 05:54:33;;;;;;;;;;;;;;;;;;3552850;27;20027;-43
2021/06/05 05:56:14;;;;;;;;;;;;;;;;;;3554271;27;19927;-43
2021/06/05 05:57:55;;;;;;;;;;;;;;;;;;3553621;27;19949;-46
2021/06/05 05:59:36;;;;;;;;;;;;;;;;;;3554079;27;20026;-46
2021/06/05 06:01:19;;;;;;;;;;;;;;;;;;3553573;27;19969;-47
2021/06/05 06:03:00;;;;;;;;;;;;;;;;;;3554704;27;19927;-48
2021/06/05 06:04:42;;;;;;;;;;;;;;;;;;3554840;27;19934;-45
2021/06/05 06:06:23;;;;;;;;;;;;;;;;;;3552813;27;19931;-46
2021/06/05 06:08:04;;;;;;;;;;;;;;;;;;3554565;27;20402;-48
2021/06/05 06:09:45;;;;;;;;;;;;;;;;;;3553063;27;20334;-46
2021/06/05 06:11:25;;;;;;;;;;;;;;;;;;3555532;27;19966;-46
2021/06/05 06:13:07;;;;;;;;;;;;;;;;;;3553107;27;19927;-46
2021/06/05 06:14:49;;;;;;;;;;;;;;;;;;3556097;27;19927;-43
2021/06/05 06:16:30;;;;;;;;;;;;;;;;;;3555742;27;19927;-43
2021/06/05 06:18:11;;;;;;;;;;;;;;;;;;3553109;27;20406;-44
2021/06/05 06:19:52;;;;;;;;;;;;;;;;;;3555893;27;20014;-49
2021/06/05 06:21:33;;;;;;;;;;;;;;;;;;3552977;27;19974;-44
2021/06/05 06:23:14;;;;;;;;;;;;;;;;;;3554250;27;20011;-44
2021/06/05 06:24:55;;;;;;;;;;;;;;;;;;3553333;27;19943;-46
2021/06/05 06:26:36;;;;;;;;;;;;;;;;;;3554338;27;20352;-43
2021/06/05 06:28:17;;;;;;;;;;;;;;;;;;3555385;27;19927;-45
2021/06/05 06:29:58;;;;;;;;;;;;;;;;;;3552981;27;19973;-46
2021/06/05 06:31:39;;;;;;;;;;;;;;;;;;3554646;27;19927;-43
2021/06/05 06:33:20;;;;;;;;;;;;;;;;;;3553361;27;20017;-44
2021/06/05 06:35:01;;;;;;;;;;;;;;;;;;3552999;27;20071;-47
2021/06/05 06:36:42;;;;;;;;;;;;;;;;;;3553172;27;20316;-43
2021/06/05 06:38:23;;;;;;;;;;;;;;;;;;3553248;27;20422;-45
2021/06/05 06:40:04;;;;;;;;;;;;;;;;;;3554826;27;20199;-45
2021/06/05 06:41:45;;;;;;;;;;;;;;;;;;3553937;27;19937;-44
2021/06/05 06:43:26;;;;;;;;;;;;;;;;;;3555711;27;20411;-45
2021/06/05 06:45:07;;;;;;;;;;;;;;;;;;3553201;27;19973;-45
2021/06/05 06:46:48;;;;;;;;;;;;;;;;;;3555174;27;19934;-46
2021/06/05 06:48:29;;;;;;;;;;;;;;;;;;3553069;27;19962;-43
2021/06/05 06:50:10;;;;;;;;;;;;;;;;;;3555817;27;19933;-43
2021/06/05 06:51:51;;;;;;;;;;;;;;;;;;3553429;27;20059;-44
2021/06/05 06:53:32;;;;;;;;;;;;;;;;;;3556739;27;19970;-44
2021/06/05 06:55:13;;;;;;;;;;;;;;;;;;3555576;27;19981;-43
2021/06/05 06:56:54;;;;;;;;;;;;;;;;;;3554949;27;20010;-43
2021/06/05 06:58:35;;;;;;;;;;;;;;;;;;3558161;27;20348;-44
2021/06/05 07:00:16;;;;;;;;;;;;;;;;;;3555937;27;20414;-44
2021/06/05 07:01:57;;;;;;;;;;;;;;;;;;3560076;27;19926;-44
2021/06/05 07:03:38;;;;;;;;;;;;;;;;;;3569095;27;20414;-45
2021/06/05 07:05:19;;;;;;;;;;;;;;;;;;3557456;27;19966;-43
2021/06/05 07:07:00;;;;;;;;;;;;;;;;;;3557729;27;19933;-43
2021/06/05 07:08:41;;;;;;;;;;;;;;;;;;3555246;27;19927;-45
2021/06/05 07:10:23;;;;;;;;;;;;;;;;;;3559282;27;19926;-43
2021/06/05 07:12:04;;;;;;;;;;;;;;;;;;3555034;27;19937;-44
2021/06/05 07:13:45;;;;;;;;;;;;;;;;;;3558694;27;19931;-45
2021/06/05 07:15:26;;;;;;;;;;;;;;;;;;3555007;27;20435;-45
2021/06/05 07:17:07;;;;;;;;;;;;;;;;;;3557846;27;19931;-44
2021/06/05 07:18:48;;;;;;;;;;;;;;;;;;3557662;27;20331;-44
2021/06/05 07:20:29;;;;;;;;;;;;;;;;;;3555668;27;19934;-43
2021/06/05 07:22:10;;;;;;;;;;;;;;;;;;3555804;27;20315;-43
2021/06/05 07:23:51;;;;;;;;;;;;;;;;;;3554795;27;19966;-43
2021/06/05 07:25:31;;;;;;;;;;;;;;;;;;3558254;27;20096;-44
2021/06/05 07:27:12;;;;;;;;;;;;;;;;;;3555022;27;19927;-45
2021/06/05 07:28:53;;;;;;;;;;;;;;;;;;3557582;27;19970;-43
2021/06/05 07:30:34;;;;;;;;;;;;;;;;;;3555533;27;19927;-45
2021/06/05 07:32:15;;;;;;;;;;;;;;;;;;3554741;27;20394;-46
2021/06/05 07:33:56;;;;;;;;;;;;;;;;;;3556427;27;19934;-45
2021/06/05 07:35:37;;;;;;;;;;;;;;;;;;3554876;27;19931;-44
2021/06/05 07:37:20;;;;;;;;;;;;;;;;;;3557397;27;20017;-45
2021/06/05 07:39:01;;;;;;;;;;;;;;;;;;3555516;27;20410;-44
2021/06/05 07:40:42;;;;;;;;;;;;;;;;;;3555959;27;19931;-44
2021/06/05 07:42:23;;;;;;;;;;;;;;;;;;3558358;27;20014;-43
2021/06/05 07:44:04;;;;;;;;;;;;;;;;;;3554537;27;19953;-44
2021/06/05 07:45:45;;;;;;;;;;;;;;;;;;3556051;27;19926;-43
2021/06/05 07:47:26;;;;;;;;;;;;;;;;;;3554609;27;20387;-44
2021/06/05 07:49:07;;;;;;;;;;;;;;;;;;3557166;27;19926;-44
2021/06/05 07:50:47;;;;;;;;;;;;;;;;;;3554694;27;19927;-44
2021/06/05 07:52:28;;;;;;;;;;;;;;;;;;3555282;27;20379;-43
2021/06/05 07:54:09;;;;;;;;;;;;;;;;;;3555742;27;19927;-44
2021/06/05 07:55:50;;;;;;;;;;;;;;;;;;3554908;27;19966;-43
2021/06/05 07:57:31;;;;;;;;;;;;;;;;;;3557093;27;19990;-43
2021/06/05 07:59:12;;;;;;;;;;;;;;;;;;3554583;27;19927;-44
2021/06/05 08:00:53;;;;;;;;;;;;;;;;;;3556924;27;20450;-46
2021/06/05 08:02:34;;;;;;;;;;;;;;;;;;3554039;27;19974;-44
2021/06/05 08:04:17;;;;;;;;;;;;;;;;;;3555954;27;19927;-44
2021/06/05 08:05:57;;;;;;;;;;;;;;;;;;3555346;27;24234;-45
2021/06/05 08:07:38;;;;;;;;;;;;;;;;;;3555174;27;20410;-45
2021/06/05 08:09:19;;;;;;;;;;;;;;;;;;3555731;27;19933;-45
2021/06/05 08:11:00;;;;;;;;;;;;;;;;;;3554390;27;19974;-43
2021/06/05 08:12:41;;;;;;;;;;;;;;;;;;3556337;27;19927;-44
2021/06/05 08:14:22;;;;;;;;;;;;;;;;;;3565142;27;19933;-44
2021/06/05 08:16:03;;;;;;;;;;;;;;;;;;3556627;27;19966;-43
2021/06/05 08:17:44;;;;;;;;;;;;;;;;;;3554350;27;19927;-43
2021/06/05 08:19:25;;;;;;;;;;;;;;;;;;3554205;27;19955;-45
2021/06/05 08:21:06;;;;;;;;;;;;;;;;;;3555797;27;19931;-43
2021/06/05 08:22:47;;;;;;;;;;;;;;;;;;3554255;27;19976;-44
2021/06/05 08:24:28;;;;;;;;;;;;;;;;;;3556083;27;20033;-43
2021/06/05 08:26:09;;;;;;;;;;;;;;;;;;3554738;27;20021;-43
2021/06/05 08:27:50;;;;;;;;;;;;;;;;;;3556720;27;19962;-43
2021/06/05 08:29:31;;;;;;;;;;;;;;;;;;3555238;27;19933;-43
2021/06/05 08:31:12;;;;;;;;;;;;;;;;;;3555822;27;19927;-44
2021/06/05 08:32:53;;;;;;;;;;;;;;;;;;3557273;27;20013;-45
2021/06/05 08:34:34;;;;;;;;;;;;;;;;;;3554141;27;20030;-45
2021/06/05 08:36:14;;;;;;;;;;;;;;;;;;3557189;27;20009;-45
2021/06/05 08:37:55;;;;;;;;;;;;;;;;;;3554290;27;19927;-45
2021/06/05 08:39:37;;;;;;;;;;;;;;;;;;3556893;27;19927;-43
2021/06/05 08:41:19;;;;;;;;;;;;;;;;;;3554463;27;19988;-44
2021/06/05 08:43:00;;;;;;;;;;;;;;;;;;3556007;27;19975;-45
2021/06/05 08:44:41;;;;;;;;;;;;;;;;;;3557588;27;19933;-44
2021/06/05 08:46:22;;;;;;;;;;;;;;;;;;3554478;27;20321;-44
2021/06/05 08:48:03;;;;;;;;;;;;;;;;;;3556904;27;20391;-45
2021/06/05 08:49:44;;;;;;;;;;;;;;;;;;3554078;27;19966;-44
2021/06/05 08:51:25;;;;;;;;;;;;;;;;;;3555039;27;20480;-47
2021/06/05 08:53:06;;;;;;;;;;;;;;;;;;3554110;27;19969;-45
2021/06/05 08:54:47;;;;;;;;;;;;;;;;;;3562844;27;20063;-46
2021/06/05 08:56:32;;;;;;;;;;;;;;;;;;3564895;27;19927;-44
2021/06/05 08:58:12;;;;;;;;;;;;;;;;;;3554552;27;19934;-45
2021/06/05 08:59:53;;;;;;;;;;;;;;;;;;3554692;27;19953;-44
2021/06/05 09:01:34;;;;;;;;;;;;;;;;;;3553664;27;20534;-43
2021/06/05 09:03:15;;;;;;;;;;;;;;;;;;3555357;27;19927;-45
2021/06/05 09:04:57;;;;;;;;;;;;;;;;;;3553922;27;19975;-46
2021/06/05 09:06:38;;;;;;;;;;;;;;;;;;3555381;27;19927;-44
2021/06/05 09:08:19;;;;;;;;;;;;;;;;;;3556299;27;20028;-45
2021/06/05 09:10:07;;;;;;;;;;;;;;;;;;3554192;27;19927;-45
2021/06/05 09:11:48;;;;;;;;;;;;;;;;;;3556349;27;19970;-43
2021/06/05 09:13:29;;;;;;;;;;;;;;;;;;3556846;27;19976;-43
2021/06/05 09:15:10;;;;;;;;;;;;;;;;;;3558801;27;19927;-45
2021/06/05 09:16:51;;;;;;;;;;;;;;;;;;3553779;27;19991;-44
2021/06/05 09:18:32;;;;;;;;;;;;;;;;;;3555278;27;19966;-43
2021/06/05 09:20:13;;;;;;;;;;;;;;;;;;3556498;27;20390;-44
2021/06/05 09:21:59;;;;;;;;;;;;;;;;;;3553563;27;19931;-43
2021/06/05 09:23:40;;;;;;;;;;;;;;;;;;3556197;27;19989;-43
2021/06/05 09:25:21;;;;;;;;;;;;;;;;;;3554710;27;20311;-43
2021/06/05 09:27:02;;;;;;;;;;;;;;;;;;3556656;27;19995;-45
2021/06/05 09:28:43;;;;;;;;;;;;;;;;;;3553493;27;19971;-45
2021/06/05 09:30:24;;;;;;;;;;;;;;;;;;3556362;27;19942;-46
2021/06/05 09:32:05;;;;;;;;;;;;;;;;;;3556336;27;19927;-45
2021/06/05 09:33:46;;;;;;;;;;;;;;;;;;3553578;27;20284;-44
2021/06/05 09:35:27;;;;;;;;;;;;;;;;;;3556252;27;20299;-45
2021/06/05 09:37:08;;;;;;;;;;;;;;;;;;3554026;27;20017;-44
2021/06/05 09:38:49;;;;;;;;;;;;;;;;;;3555083;27;19927;-43
2021/06/05 09:40:33;;;;;;;;;;;;;;;;;;3554684;27;20403;-44
2021/06/05 09:42:14;;;;;;;;;;;;;;;;;;3554436;27;19985;-44
2021/06/05 09:43:55;;;;;;;;;;;;;;;;;;3556066;27;20373;-44
2021/06/05 09:45:36;;;;;;;;;;;;;;;;;;3553236;27;19927;-43
2021/06/05 09:47:17;;;;;;;;;;;;;;;;;;3556735;27;19978;-45
2021/06/05 09:48:58;;;;;;;;;;;;;;;;;;3554124;27;19949;-44
2021/06/05 09:50:42;;;;;;;;;;;;;;;;;;3557651;27;20336;-45
2021/06/05 09:52:23;;;;;;;;;;;;;;;;;;3565714;27;19927;-43
2021/06/05 09:54:04;;;;;;;;;;;;;;;;;;3554736;27;19987;-45
2021/06/05 09:55:45;;;;;;;;;;;;;;;;;;3554391;27;20003;-44
2021/06/05 09:57:26;;;;;;;;;;;;;;;;;;3553623;27;19927;-44
2021/06/05 09:59:06;;;;;;;;;;;;;;;;;;3555370;27;20395;-45
2021/06/05 10:00:47;;;;;;;;;;;;;;;;;;3553752;27;20580;-44
2021/06/05 10:02:28;;;;;;;;;;;;;;;;;;3555793;27;19933;-43
2021/06/05 10:04:09;;;;;;;;;;;;;;;;;;3554607;27;19927;-45
2021/06/05 10:05:50;;;;;;;;;;;;;;;;;;3553205;27;19958;-44
2021/06/05 10:07:31;;;;;;;;;;;;;;;;;;3554104;27;19931;-43
2021/06/05 10:09:12;;;;;;;;;;;;;;;;;;3554851;27;20031;-45
2021/06/05 10:10:53;;;;;;;;;;;;;;;;;;3554678;27;20396;-44
2021/06/05 10:12:34;;;;;;;;;;;;;;;;;;3553354;27;19979;-45
2021/06/05 10:14:15;;;;;;;;;;;;;;;;;;3554886;27;19970;-45
2021/06/05 10:15:55;;;;;;;;;;;;;;;;;;3553822;27;20026;-46
2021/06/05 10:17:37;;;;;;;;;;;;;;;;;;3553761;27;19930;-45
2021/06/05 10:19:18;;;;;;;;;;;;;;;;;;3555721;27;19958;-46
2021/06/05 10:20:59;;;;;;;;;;;;;;;;;;3553178;27;20014;-45
2021/06/05 10:22:40;;;;;;;;;;;;;;;;;;3555420;27;19934;-45
2021/06/05 10:24:21;;;;;;;;;;;;;;;;;;3553357;27;20276;-45
2021/06/05 10:26:02;;;;;;;;;;;;;;;;;;3555611;27;19982;-43
2021/06/05 10:27:42;;;;;;;;;;;;;;;;;;3554577;27;20057;-45
2021/06/05 10:29:23;;;;;;;;;;;;;;;;;;3554427;27;19931;-45
2021/06/05 10:31:04;;;;;;;;;;;;;;;;;;3555952;27;20372;-45
2021/06/05 10:32:45;;;;;;;;;;;;;;;;;;3553282;27;20375;-44
2021/06/05 10:34:26;;;;;;;;;;;;;;;;;;3555990;27;19934;-45
2021/06/05 10:36:07;;;;;;;;;;;;;;;;;;3553099;27;20384;-46
2021/06/05 10:37:48;;;;;;;;;;;;;;;;;;3553161;27;19934;-46
2021/06/05 10:39:29;;;;;;;;;;;;;;;;;;3553762;27;20391;-45
2021/06/05 10:41:10;;;;;;;;;;;;;;;;;;3555527;27;19987;-43
2021/06/05 10:42:51;;;;;;;;;;;;;;;;;;3555876;27;20431;-45
2021/06/05 10:44:32;;;;;;;;;;;;;;;;;;3552887;27;20063;-44
2021/06/05 10:46:13;;;;;;;;;;;;;;;;;;3555357;27;20423;-45
2021/06/05 10:47:53;;;;;;;;;;;;;;;;;;3552585;27;19931;-45
2021/06/05 10:49:35;;;;;;;;;;;;;;;;;;3555827;27;19982;-44
2021/06/05 10:51:15;;;;;;;;;;;;;;;;;;3552727;27;20407;-43
2021/06/05 10:52:56;;;;;;;;;;;;;;;;;;3555687;27;19927;-44
2021/06/05 10:54:37;;;;;;;;;;;;;;;;;;3555625;27;20026;-44
2021/06/05 10:56:18;;;;;;;;;;;;;;;;;;3552409;27;19927;-44
2021/06/05 10:57:59;;;;;;;;;;;;;;;;;;3552995;27;19980;-46
2021/06/05 10:59:40;;;;;;;;;;;;;;;;;;3552836;27;19931;-44
2021/06/05 11:01:21;;;;;;;;;;;;;;;;;;3555640;27;19941;-43
2021/06/05 11:03:04;;;;;;;;;;;;;;;;;;3552641;27;20011;-45
2021/06/05 11:04:45;;;;;;;;;;;;;;;;;;3555234;27;20013;-45
2021/06/05 11:06:26;;;;;;;;;;;;;;;;;;3555125;27;20018;-44
2021/06/05 11:08:07;;;;;;;;;;;;;;;;;;3553535;27;20013;-44
2021/06/05 11:09:48;;;;;;;;;;;;;;;;;;3552557;27;19927;-45
2021/06/05 11:11:29;;;;;;;;;;;;;;;;;;3552320;27;19972;-45
2021/06/05 11:13:10;;;;;;;;;;;;;;;;;;3552968;27;19927;-44
2021/06/05 11:14:50;;;;;;;;;;;;;;;;;;3567373;27;19953;-44
2021/06/05 11:16:31;;;;;;;;;;;;;;;;;;3556098;27;19927;-43
2021/06/05 11:18:12;;;;;;;;;;;;;;;;;;3554405;27;19934;-44
2021/06/05 11:19:53;;;;;;;;;;;;;;;;;;3553214;27;19987;-43
2021/06/05 11:21:34;;;;;;;;;;;;;;;;;;3555310;27;19942;-45
2021/06/05 11:23:15;;;;;;;;;;;;;;;;;;3552757;27;19985;-45
2021/06/05 11:24:56;;;;;;;;;;;;;;;;;;3554058;27;19977;-45
2021/06/05 11:26:37;;;;;;;;;;;;;;;;;;3552276;27;19927;-45
2021/06/05 11:28:18;;;;;;;;;;;;;;;;;;3555068;27;20379;-45
2021/06/05 11:29:59;;;;;;;;;;;;;;;;;;3551741;27;19927;-48